Etusivu
METAR-TAF:

METAR-TAF

Lentoasemat :

N’Djamenan kansainvälinen lentoasema

N'Djamena, Tšad

Leveyspiiri: 12-08N, Pituuspiiri: 015-02E, korkeus merenpinnasta: 295 m

Tämänhetkinen sää

Tämä raportti tehtiin 44 minuuttia sitten, kello 19.00 UTC
Tuuli 6 kn lännestä, vaihdellen lännen ja pohjoisen välillä
Lämpötila 30°C
Kosteus 55%
Ilmanpaine 1008 hPa
Näkyvyys: 6000 m

METAR: FTTJ 211900Z 27006KT 270V360 6000 NSC 30/20 Q1008 NOSIG

Aika: 20:44 (19:44 UTC)

Sääennuste

Tämä raportti tehtiin 2 tuntia ja 44 minuuttia sitten, kello 17.00 UTC
Ennuste voimassa 21. päivästä klo 18 UTC - 22. päivään klo 24 UTC
Tuuli 3 kn eri suunnista
Näkyvyys: 6000 m
Ajoittain
22. päivästä klo 02 UTC - 22. päivään klo 07 UTC
Näkyvyys: 4000 m
usvaa
Ajoittain
22. päivästä klo 08 UTC - 22. päivään klo 14 UTC
Tuuli 10 kn idästä
Näkyvyys 10 km tai enemmän
Muutamia pilviä 4000 ft:n korkeudessa

TAF: FTTJ 211700Z 2118/2224 VRB03KT 6000 NSC TEMPO 2202/2207 4000 HZ TEMPO 2208/2214 10010KT 9999 FEW040

Säähavainnot ja -ennusteet yli 4000 lentoasemalta (METAR- ja TAF-raportit).

Käytössä olevat sääasemat on merkitty karttaan keltaisilla ja punaisilla pisteillä.

Aseta hiiri pisteen päälle nähdäksesi sääaseman nimen.

Klikkaa sitten nähdäksesi säähavainnot ja -ennusteet.

Kartan vaihtaminen: klikkaa mustalla rastilla varustettuja vihreitä pisteitä, niin voit zoomata sisään; viivalla varustettua vihreää pistettä, niin voit zoomata ulos tai vihreitä nuolia, niin pääset viereisille kartoille.


METAR-TAF: